LMML/MLA METAR and TAF weather

Enter ICAO airport designator
Station Type Date Time Source
LMML METAR 2019/04/22 18:45 UTC NOAA

LMML 221845Z 17014KT 6000 NSC 17/13 Q1004 NOSIG RMK DU


Station Type Date Time Source
LMML Decoded METAR 2019/04/22 18:45 UTC NOAA

Luqa, Malta (LMML) 35-51N 014-29E 91M
Apr 22, 2019 - 02:45 PM EDT / 2019.04.22 1845 UTC
Wind: from the S (170 degrees) at 16 MPH (14 KT):0
Visibility: 3 mile(s):0
Temperature: 62 F (17 C)
Dew Point: 55 F (13 C)
Relative Humidity: 77%
Pressure (altimeter): 29.65 in. Hg (1004 hPa)
ob: LMML 221845Z 17014KT 6000 NSC 17/13 Q1004 NOSIG RMK DU
cycle: 19

Station Type Date Time Source
LMML TAF 2019/04/22 18:47 UTC NOAA

TAF LMML 221700Z 2218/2318 16020KT 9000 TS SCT080CB
BECMG 2218/2221 9000 NSC PROB30 2218/2306 4000 DU
TEMPO 2221/2303 BKN012
BECMG 2300/2303 15010KT
BECMG 2303/2306 21008KT

Example: see airport list